Terminal Aerodrome Forecast
Issued by NWS

Home | Current Version | Previous Version | Text Only | Print | Product List | Glossary On
Versions: 1 2 3 4 5 6 7 8 9 10 11 12 13 14 15 16 17 18 19 20 21 22 23
467
FTUS41 KBGM 081743
TAFRME
TAF
KRME 081743Z 0818/0918 26012G22KT P6SM -SHSN OVC050
     FM090300 26012G22KT 3/4SM -SHSN BR OVC015
     FM090600 29012G25KT P6SM -SHSN OVC025=

USA.gov is the U.S. government's official web portal to all federal, state and local government web resources and services.